Time;durP1;ratioP1;P1;durP2;ratioP2;P2;SDS_P1;SDS_P2;PMS_P1;PMS_P2;Temp;Humidity;BMP_temperature;BMP_pressure;BME280_temperature;BME280_humidity;BME280_pressure;Samples;Min_cycle;Max_cycle;Signal;HPM_P1;HPM_P2
2023/07/22 00:01:55;;;;;;;4.68;2.92;;;22.50;1.00;;;;;;4846667;29;20538;-63
2023/07/22 00:04:22;;;;;;;4.20;2.78;;;22.50;1.00;;;;;;4849072;29;20474;-63
2023/07/22 00:06:49;;;;;;;4.28;2.85;;;22.50;1.00;;;;;;4849324;29;20074;-63
2023/07/22 00:09:16;;;;;;;4.13;2.60;;;22.50;1.00;;;;;;4849751;29;20042;-63
2023/07/22 00:11:43;;;;;;;4.40;3.05;;;22.50;1.00;;;;;;4846951;29;20121;-63
2023/07/22 00:14:10;;;;;;;4.22;2.70;;;22.50;1.00;;;;;;4847110;29;20073;-63
2023/07/22 00:16:37;;;;;;;4.55;3.50;;;22.50;1.00;;;;;;4849453;29;20049;-63
2023/07/22 00:19:04;;;;;;;4.43;2.78;;;22.50;1.00;;;;;;4847650;29;20403;-63
2023/07/22 00:21:31;;;;;;;3.88;2.70;;;22.50;1.00;;;;;;4843005;29;20041;-63
2023/07/22 00:23:59;;;;;;;4.63;3.10;;;22.50;1.00;;;;;;4842374;29;20623;-63
2023/07/22 00:26:26;;;;;;;5.40;2.88;;;22.50;1.00;;;;;;4846288;29;20125;-63
2023/07/22 00:28:53;;;;;;;3.35;2.25;;;22.50;1.00;;;;;;4849578;29;20050;-63
2023/07/22 00:31:20;;;;;;;4.63;3.13;;;22.50;1.00;;;;;;4849984;29;20054;-63
2023/07/22 00:33:47;;;;;;;6.05;3.17;;;22.40;1.00;;;;;;4845147;29;20048;-63
2023/07/22 00:36:14;;;;;;;7.43;2.80;;;22.40;1.00;;;;;;4861978;29;20060;-63
2023/07/22 00:38:41;;;;;;;5.03;2.60;;;22.40;1.00;;;;;;4845830;29;20042;-63
2023/07/22 00:41:08;;;;;;;3.75;2.60;;;22.40;1.00;;;;;;4846990;29;20072;-63
2023/07/22 00:43:35;;;;;;;5.45;2.55;;;22.40;1.00;;;;;;4832011;29;20382;-63
2023/07/22 00:46:01;;;;;;;5.40;2.75;;;22.40;1.00;;;;;;4849058;29;20065;-63
2023/07/22 00:48:28;;;;;;;4.65;2.55;;;22.40;1.00;;;;;;4846860;29;20062;-63
2023/07/22 00:50:55;;;;;;;3.95;2.72;;;22.40;1.00;;;;;;4850724;29;20505;-63
2023/07/22 00:53:22;;;;;;;5.68;2.90;;;22.40;1.00;;;;;;4848091;29;20566;-63
2023/07/22 00:55:49;;;;;;;4.35;2.45;;;22.40;1.00;;;;;;4839007;29;20050;-63
2023/07/22 00:58:16;;;;;;;5.05;2.95;;;22.40;1.00;;;;;;4851755;29;20050;-63
2023/07/22 01:00:43;;;;;;;4.45;2.80;;;22.40;1.00;;;;;;4838640;29;20153;-62
2023/07/22 01:03:10;;;;;;;4.88;2.80;;;22.40;1.00;;;;;;4849112;29;20050;-64
2023/07/22 01:05:38;;;;;;;4.18;2.72;;;22.40;1.00;;;;;;4847813;29;20053;-63
2023/07/22 01:08:06;;;;;;;7.00;3.20;;;22.40;1.00;;;;;;4844269;29;20075;-63
2023/07/22 01:10:33;;;;;;;4.40;2.78;;;22.40;1.00;;;;;;4846117;29;20046;-62
2023/07/22 01:13:00;;;;;;;4.05;2.58;;;22.40;1.00;;;;;;4854763;29;20384;-63
2023/07/22 01:15:28;;;;;;;6.13;3.45;;;22.40;1.00;;;;;;4847628;29;20053;-63
2023/07/22 01:17:56;;;;;;;5.72;3.53;;;22.40;1.00;;;;;;4855597;29;20049;-63
2023/07/22 01:20:23;;;;;;;4.43;2.90;;;22.40;1.00;;;;;;4846354;29;20042;-69
2023/07/22 01:22:52;;;;;;;6.38;2.88;;;22.40;1.00;;;;;;4847280;29;20610;-63
2023/07/22 01:25:22;;;;;;;4.43;2.55;;;22.40;1.00;;;;;;4844783;29;20458;-63
2023/07/22 01:27:51;;;;;;;6.13;3.27;;;22.40;1.00;;;;;;4859904;29;20054;-63
2023/07/22 01:30:19;;;;;;;4.15;2.83;;;22.40;1.00;;;;;;4854232;29;20099;-63
2023/07/22 01:32:47;;;;;;;4.28;2.85;;;22.40;1.00;;;;;;4847829;29;20077;-63
2023/07/22 01:35:14;;;;;;;4.07;2.72;;;22.30;1.00;;;;;;4849213;29;20058;-63
2023/07/22 01:37:41;;;;;;;4.72;2.95;;;22.30;1.00;;;;;;4865692;29;20474;-63
2023/07/22 01:40:12;;;;;;;4.63;2.92;;;22.30;1.00;;;;;;4864686;29;20078;-63
2023/07/22 01:42:42;;;;;;;6.57;3.00;;;22.30;1.00;;;;;;4843664;29;20500;-63
2023/07/22 01:45:10;;;;;;;4.68;2.90;;;22.30;1.00;;;;;;4843531;29;20050;-63
2023/07/22 01:47:40;;;;;;;4.07;2.47;;;22.30;1.00;;;;;;4848393;29;20046;-62
2023/07/22 01:50:07;;;;;;;4.78;2.75;;;22.30;1.00;;;;;;4845202;29;20750;-62
2023/07/22 01:52:34;;;;;;;4.90;3.40;;;22.30;1.00;;;;;;4848283;29;20061;-69
2023/07/22 01:55:05;;;;;;;6.15;3.05;;;22.30;1.00;;;;;;4846352;29;20054;-63
2023/07/22 01:57:35;;;;;;;4.60;2.50;;;22.30;1.00;;;;;;4844507;29;20054;-63
2023/07/22 02:00:05;;;;;;;4.78;3.00;;;22.30;1.00;;;;;;4857209;29;20077;-62
2023/07/22 02:02:38;;;;;;;5.43;2.95;;;22.30;1.00;;;;;;4844005;29;20072;-62
2023/07/22 02:05:06;;;;;;;5.40;2.72;;;22.30;1.00;;;;;;4844832;29;20366;-63
2023/07/22 02:07:33;;;;;;;6.95;3.35;;;22.30;1.00;;;;;;4839779;29;20145;-63
2023/07/22 02:10:00;;;;;;;5.45;3.08;;;22.30;1.00;;;;;;4845065;29;20192;-63
2023/07/22 02:12:26;;;;;;;4.93;3.45;;;22.30;1.00;;;;;;4848396;29;20049;-63
2023/07/22 02:14:53;;;;;;;5.53;2.92;;;22.30;1.00;;;;;;4846421;29;20406;-62
2023/07/22 02:17:20;;;;;;;4.53;3.05;;;22.30;1.00;;;;;;4844547;29;20048;-62
2023/07/22 02:19:48;;;;;;;5.47;3.35;;;22.30;1.00;;;;;;4832842;29;20255;-62
2023/07/22 02:22:14;;;;;;;4.25;2.78;;;22.30;1.00;;;;;;4840580;29;20097;-62
2023/07/22 02:24:41;;;;;;;5.13;3.50;;;22.30;1.00;;;;;;4843389;29;20489;-62
2023/07/22 02:27:08;;;;;;;7.28;3.08;;;22.30;1.00;;;;;;4845925;29;20053;-62
2023/07/22 02:29:36;;;;;;;4.85;3.08;;;22.30;1.00;;;;;;4840815;29;20078;-62
2023/07/22 02:32:03;;;;;;;5.72;3.58;;;22.30;1.00;;;;;;4857079;29;20481;-62
2023/07/22 02:34:30;;;;;;;4.95;2.85;;;22.20;1.00;;;;;;4845340;29;20049;-62
2023/07/22 02:36:57;;;;;;;8.20;3.00;;;22.30;1.00;;;;;;4841359;29;20074;-62
2023/07/22 02:39:24;;;;;;;3.50;2.25;;;22.30;1.00;;;;;;4857255;29;20052;-62
2023/07/22 02:41:51;;;;;;;3.78;2.60;;;22.20;1.00;;;;;;4839572;29;20422;-62
2023/07/22 02:44:17;;;;;;;5.18;3.00;;;22.30;1.00;;;;;;4846443;29;20140;-63
2023/07/22 02:46:44;;;;;;;3.78;2.67;;;22.20;1.00;;;;;;4840130;29;20049;-62
2023/07/22 02:49:11;;;;;;;4.93;2.70;;;22.20;1.00;;;;;;4859904;29;20062;-62
2023/07/22 02:51:38;;;;;;;3.78;2.60;;;22.20;1.00;;;;;;4841865;29;20056;-62
2023/07/22 02:54:05;;;;;;;8.95;3.53;;;22.20;1.00;;;;;;4855991;29;20041;-62
2023/07/22 02:56:32;;;;;;;7.88;3.53;;;22.20;1.00;;;;;;4842311;29;20054;-63
2023/07/22 02:58:58;;;;;;;5.32;3.10;;;22.20;1.00;;;;;;4845394;29;20046;-62
2023/07/22 03:01:25;;;;;;;4.30;3.03;;;22.20;1.00;;;;;;4842494;29;20086;-62
2023/07/22 03:03:53;;;;;;;5.50;3.13;;;22.20;1.00;;;;;;4845091;29;20072;-62
2023/07/22 03:06:20;;;;;;;4.60;2.97;;;22.20;1.00;;;;;;4838474;29;20058;-62
2023/07/22 03:08:48;;;;;;;5.43;2.80;;;22.20;1.00;;;;;;4843770;29;20144;-62
2023/07/22 03:11:15;;;;;;;5.72;3.33;;;22.20;1.00;;;;;;4844772;29;20078;-62
2023/07/22 03:13:42;;;;;;;4.22;2.42;;;22.20;1.00;;;;;;4841804;29;20093;-62
2023/07/22 03:16:09;;;;;;;4.60;2.80;;;22.20;1.00;;;;;;4844131;29;20046;-63
2023/07/22 03:18:38;;;;;;;3.78;2.45;;;22.20;1.00;;;;;;4854425;29;21940;-62
2023/07/22 03:21:05;;;;;;;4.60;2.65;;;22.20;1.00;;;;;;4842793;29;20088;-62
2023/07/22 03:23:32;;;;;;;5.13;3.38;;;22.20;1.00;;;;;;4841857;29;20106;-62
2023/07/22 03:25:59;;;;;;;4.63;3.20;;;22.20;1.00;;;;;;4847550;29;20061;-63
2023/07/22 03:28:26;;;;;;;5.38;3.33;;;22.20;1.00;;;;;;4846653;29;20049;-63
2023/07/22 03:30:53;;;;;;;5.05;2.58;;;22.20;1.00;;;;;;4843481;29;20561;-63
2023/07/22 03:33:20;;;;;;;4.75;2.90;;;22.20;1.00;;;;;;4840219;29;20067;-63
2023/07/22 03:35:46;;;;;;;4.95;3.15;;;22.20;1.00;;;;;;4840066;29;20478;-62
2023/07/22 03:38:13;;;;;;;3.92;2.75;;;22.20;1.00;;;;;;4843637;29;20141;-61
2023/07/22 03:40:40;;;;;;;4.47;3.05;;;22.20;1.00;;;;;;4842738;29;20077;-63
2023/07/22 03:43:07;;;;;;;4.78;2.90;;;22.10;1.00;;;;;;4841407;29;20418;-63
2023/07/22 03:45:34;;;;;;;4.60;3.13;;;22.20;1.00;;;;;;4846867;29;20516;-62
2023/07/22 03:48:01;;;;;;;4.78;2.83;;;22.10;1.00;;;;;;4840513;29;20046;-63
2023/07/22 03:50:28;;;;;;;4.10;2.67;;;22.10;1.00;;;;;;4844821;29;20097;-63
2023/07/22 03:52:55;;;;;;;3.72;2.72;;;22.10;1.00;;;;;;4841099;29;20057;-63
2023/07/22 03:55:26;;;;;;;4.35;2.83;;;22.20;1.00;;;;;;4843393;29;20460;-69
2023/07/22 03:58:00;;;;;;;4.18;2.85;;;22.10;1.00;;;;;;4845155;29;20062;-63
2023/07/22 04:00:27;;;;;;;4.13;2.85;;;22.10;1.00;;;;;;4843433;29;20357;-63
2023/07/22 04:02:54;;;;;;;3.33;2.70;;;22.10;1.00;;;;;;4844650;29;20040;-63
2023/07/22 04:05:21;;;;;;;4.50;2.53;;;22.10;1.00;;;;;;4850844;29;20193;-63
2023/07/22 04:07:48;;;;;;;3.83;2.67;;;22.10;1.00;;;;;;4844353;29;20054;-63
2023/07/22 04:10:15;;;;;;;5.28;3.03;;;22.10;1.00;;;;;;4860746;29;20121;-61
2023/07/22 04:12:42;;;;;;;2.88;2.10;;;22.10;1.00;;;;;;4854654;29;20069;-63
2023/07/22 04:15:09;;;;;;;5.50;3.30;;;22.10;1.00;;;;;;4852707;29;20049;-63
2023/07/22 04:17:36;;;;;;;3.35;2.65;;;22.10;1.00;;;;;;4848498;29;20084;-63
2023/07/22 04:20:04;;;;;;;3.75;2.78;;;22.10;1.00;;;;;;4843644;29;20153;-63
2023/07/22 04:22:31;;;;;;;4.25;2.78;;;22.10;1.00;;;;;;4846354;29;20087;-63
2023/07/22 04:24:58;;;;;;;3.60;2.30;;;22.10;1.00;;;;;;4848749;29;20052;-63
2023/07/22 04:27:26;;;;;;;3.63;2.40;;;22.10;1.00;;;;;;4842503;29;20069;-63
2023/07/22 04:29:53;;;;;;;4.75;2.65;;;22.10;1.00;;;;;;4848675;29;20059;-63
2023/07/22 04:32:20;;;;;;;3.47;2.38;;;22.10;1.00;;;;;;4863117;29;20057;-63
2023/07/22 04:34:47;;;;;;;4.15;2.63;;;22.10;1.00;;;;;;4852100;29;20054;-63
2023/07/22 04:37:16;;;;;;;3.75;2.60;;;22.10;1.00;;;;;;4846539;29;20046;-63
2023/07/22 04:39:48;;;;;;;4.28;2.70;;;22.10;1.00;;;;;;4843767;29;20067;-63
2023/07/22 04:42:15;;;;;;;5.25;2.83;;;22.10;1.00;;;;;;4843500;29;20054;-63
2023/07/22 04:44:42;;;;;;;4.38;2.83;;;22.00;1.00;;;;;;4848860;29;20356;-63
2023/07/22 04:47:08;;;;;;;4.63;2.85;;;22.10;1.00;;;;;;4841161;29;20057;-63
2023/07/22 04:49:35;;;;;;;4.45;2.90;;;22.00;1.00;;;;;;4857719;29;20042;-63
2023/07/22 04:52:02;;;;;;;3.67;2.30;;;22.00;1.00;;;;;;4842452;29;20064;-63
2023/07/22 04:54:29;;;;;;;4.18;2.97;;;22.00;1.00;;;;;;4844021;29;20073;-63
2023/07/22 04:56:56;;;;;;;3.05;2.08;;;22.00;1.00;;;;;;4847129;29;20049;-63
2023/07/22 04:59:23;;;;;;;3.78;2.63;;;22.10;1.00;;;;;;4847634;29;20050;-63
2023/07/22 05:01:50;;;;;;;2.53;2.00;;;22.10;1.00;;;;;;4836252;29;20136;-62
2023/07/22 05:04:16;;;;;;;5.05;2.80;;;22.00;1.00;;;;;;4841569;29;20129;-63
2023/07/22 05:06:43;;;;;;;4.93;2.42;;;22.00;1.00;;;;;;4841217;29;20090;-63
2023/07/22 05:09:10;;;;;;;17.27;3.03;;;22.00;1.00;;;;;;4832635;29;20050;-61
2023/07/22 05:11:37;;;;;;;8.52;3.38;;;22.00;1.00;;;;;;4835671;29;20478;-62
2023/07/22 05:14:05;;;;;;;3.97;2.50;;;22.00;1.00;;;;;;4832158;29;20041;-62
2023/07/22 05:16:31;;;;;;;5.28;2.85;;;22.00;1.00;;;;;;4839779;29;20060;-62
2023/07/22 05:18:58;;;;;;;9.07;2.80;;;22.00;1.00;;;;;;4840480;29;20168;-62
2023/07/22 05:21:25;;;;;;;5.47;2.45;;;22.00;1.00;;;;;;4837701;29;20477;-62
2023/07/22 05:23:52;;;;;;;3.83;2.42;;;22.00;1.00;;;;;;4840552;29;20478;-62
2023/07/22 05:26:19;;;;;;;4.25;2.40;;;22.00;1.00;;;;;;4837743;29;20068;-62
2023/07/22 05:28:45;;;;;;;3.50;2.53;;;22.00;1.00;;;;;;4834446;29;20129;-70
2023/07/22 05:31:13;;;;;;;9.85;2.58;;;22.00;1.00;;;;;;4849413;29;20079;-62
2023/07/22 05:33:40;;;;;;;4.78;2.45;;;22.00;1.00;;;;;;4836474;29;20045;-62
2023/07/22 05:36:07;;;;;;;4.88;2.10;;;22.00;1.00;;;;;;4840156;29;20057;-61
2023/07/22 05:38:33;;;;;;;4.05;1.92;;;22.00;1.00;;;;;;4839239;29;20505;-61
2023/07/22 05:41:00;;;;;;;5.50;2.10;;;22.00;1.00;;;;;;4824223;29;20711;-61
2023/07/22 05:43:27;;;;;;;2.90;2.00;;;22.00;1.00;;;;;;4835279;29;20403;-61
2023/07/22 05:45:54;;;;;;;9.18;2.25;;;22.00;1.00;;;;;;4840109;29;20093;-62
2023/07/22 05:48:21;;;;;;;9.70;2.42;;;22.00;1.00;;;;;;4841518;29;20042;-61
2023/07/22 05:50:49;;;;;;;6.80;2.50;;;22.00;1.00;;;;;;4841337;29;20078;-61
2023/07/22 05:53:15;;;;;;;4.32;2.70;;;21.90;1.00;;;;;;4843071;29;20046;-61
2023/07/22 05:55:42;;;;;;;5.40;2.33;;;22.00;1.00;;;;;;4839288;29;20057;-61
2023/07/22 05:58:17;;;;;;;4.32;1.80;;;22.00;1.00;;;;;;4832758;29;20045;-61
2023/07/22 06:00:45;;;;;;;3.38;2.10;;;21.90;1.00;;;;;;4830497;29;20045;-61
2023/07/22 06:03:12;;;;;;;3.70;2.13;;;21.90;1.00;;;;;;4834764;29;20501;-62
2023/07/22 06:05:39;;;;;;;3.75;1.98;;;21.90;1.00;;;;;;4827662;29;20511;-62
2023/07/22 06:08:06;;;;;;;3.90;1.92;;;21.90;1.00;;;;;;4831364;29;20450;-62
2023/07/22 06:10:33;;;;;;;18.15;1.92;;;21.90;1.00;;;;;;4834638;29;20579;-62
2023/07/22 06:13:00;;;;;;;3.42;1.58;;;21.90;1.00;;;;;;4839818;29;20050;-62
2023/07/22 06:15:27;;;;;;;2.08;1.55;;;21.90;1.00;;;;;;4842214;29;20046;-62
2023/07/22 06:17:54;;;;;;;6.38;1.88;;;21.90;1.00;;;;;;4851154;29;20046;-61
2023/07/22 06:20:21;;;;;;;5.10;1.88;;;21.80;1.00;;;;;;4839096;29;20042;-64
2023/07/22 06:22:48;;;;;;;4.60;1.63;;;21.80;1.00;;;;;;4836477;29;20125;-61
2023/07/22 06:25:15;;;;;;;3.97;2.10;;;21.90;1.00;;;;;;4840779;29;20557;-62
2023/07/22 06:27:42;;;;;;;5.15;1.52;;;21.80;1.00;;;;;;4840951;29;20054;-61
2023/07/22 06:30:09;;;;;;;3.83;1.73;;;21.80;1.00;;;;;;4838327;29;20093;-70
2023/07/22 06:32:38;;;;;;;2.35;1.42;;;21.80;1.00;;;;;;4831818;29;20067;-61
2023/07/22 06:35:05;;;;;;;6.25;1.55;;;21.80;1.00;;;;;;4841979;29;20046;-62
2023/07/22 06:37:32;;;;;;;3.45;1.63;;;21.80;1.00;;;;;;4847756;29;20042;-61
2023/07/22 06:39:59;;;;;;;3.25;1.45;;;21.80;1.00;;;;;;4843153;29;20121;-61
2023/07/22 06:42:27;;;;;;;2.50;1.23;;;21.80;1.00;;;;;;4860245;29;20516;-59
2023/07/22 06:44:53;;;;;;;5.43;1.88;;;21.80;1.00;;;;;;4848339;29;20050;-61
2023/07/22 06:47:20;;;;;;;4.03;1.90;;;21.70;1.00;;;;;;4830378;29;20134;-61
2023/07/22 06:49:47;;;;;;;4.28;1.65;;;21.70;1.00;;;;;;4829094;29;20662;-64
2023/07/22 06:52:14;;;;;;;2.80;1.60;;;21.70;1.00;;;;;;4841980;29;20053;-62
2023/07/22 06:54:41;;;;;;;3.05;1.60;;;21.70;1.00;;;;;;4833147;29;20049;-62
2023/07/22 06:57:08;;;;;;;3.00;1.55;;;21.70;1.00;;;;;;4835201;29;20125;-63
2023/07/22 06:59:36;;;;;;;8.93;1.90;;;21.70;1.00;;;;;;4834281;29;20102;-63
2023/07/22 07:02:04;;;;;;;3.25;2.05;;;21.70;1.00;;;;;;4836112;29;20042;-63
2023/07/22 07:04:31;;;;;;;2.80;1.30;;;21.70;1.00;;;;;;4833858;29;20470;-63
2023/07/22 07:06:59;;;;;;;3.03;1.45;;;21.70;1.00;;;;;;4834906;29;20050;-62
2023/07/22 07:09:25;;;;;;;2.47;1.48;;;21.70;1.00;;;;;;4834460;29;20057;-62
2023/07/22 07:11:55;;;;;;;4.07;1.85;;;21.70;1.00;;;;;;4837562;29;20054;-62
2023/07/22 07:14:23;;;;;;;3.42;1.50;;;21.70;1.00;;;;;;4836718;29;20739;-63
2023/07/22 07:16:50;;;;;;;2.58;1.30;;;21.70;1.00;;;;;;4839602;29;20042;-62
2023/07/22 07:19:17;;;;;;;2.88;1.60;;;21.70;1.00;;;;;;4849101;29;20053;-62
2023/07/22 07:21:44;;;;;;;2.88;1.58;;;21.70;1.00;;;;;;4863949;29;20053;-62
2023/07/22 07:24:11;;;;;;;4.55;1.73;;;21.70;1.00;;;;;;4850439;29;20170;-63
2023/07/22 07:26:37;;;;;;;3.20;1.45;;;21.70;1.00;;;;;;4837773;29;20286;-61
2023/07/22 07:29:04;;;;;;;3.10;1.25;;;21.70;1.00;;;;;;4839414;29;20076;-61
2023/07/22 07:31:31;;;;;;;5.45;1.58;;;21.70;1.00;;;;;;4833524;29;20507;-63
2023/07/22 07:33:59;;;;;;;2.40;1.13;;;21.70;1.00;;;;;;4831743;29;20037;-63
2023/07/22 07:36:26;;;;;;;1.98;1.10;;;21.70;1.00;;;;;;4839357;29;20582;-63
2023/07/22 07:38:53;;;;;;;2.53;1.80;;;21.70;1.00;;;;;;4837136;29;20073;-62
2023/07/22 07:41:21;;;;;;;4.22;1.40;;;21.70;1.00;;;;;;4839666;29;20579;-63
2023/07/22 07:43:48;;;;;;;2.42;1.67;;;21.70;1.00;;;;;;4841323;29;20464;-63
2023/07/22 07:46:35;;;;;;;2.72;1.20;;;21.70;1.00;;;;;;4835863;29;20054;-63
2023/07/22 07:49:02;;;;;;;2.67;1.42;;;21.70;1.00;;;;;;4838512;29;20446;-63
2023/07/22 07:51:31;;;;;;;5.32;1.80;;;21.70;1.00;;;;;;4838394;29;20070;-63
2023/07/22 07:53:59;;;;;;;2.92;1.40;;;21.70;1.00;;;;;;4836305;29;20098;-63
2023/07/22 07:56:26;;;;;;;4.13;1.55;;;21.70;1.00;;;;;;4837639;29;20410;-62
2023/07/22 07:58:54;;;;;;;5.28;1.17;;;21.70;1.00;;;;;;4851176;29;20498;-63
2023/07/22 08:01:21;;;;;;;1.67;1.10;;;21.70;1.00;;;;;;4836114;29;20045;-62
2023/07/22 08:03:49;;;;;;;2.13;1.20;;;21.70;1.00;;;;;;4840271;29;20041;-63
2023/07/22 08:06:16;;;;;;;2.20;1.38;;;21.70;1.00;;;;;;4832426;29;20050;-63
2023/07/22 08:08:48;;;;;;;5.43;1.40;;;21.70;1.00;;;;;;4839315;29;20057;-63
2023/07/22 08:11:15;;;;;;;2.22;1.20;;;21.70;1.00;;;;;;4833975;29;20078;-63
2023/07/22 08:13:43;;;;;;;3.35;1.70;;;21.70;1.00;;;;;;4836043;29;20074;-62
2023/07/22 08:16:12;;;;;;;3.03;1.30;;;21.70;1.00;;;;;;4842327;29;20114;-63
2023/07/22 08:18:40;;;;;;;6.55;1.45;;;21.70;1.00;;;;;;4836746;29;20046;-63
2023/07/22 08:21:07;;;;;;;2.40;1.25;;;21.70;1.00;;;;;;4843665;29;20506;-62
2023/07/22 08:23:36;;;;;;;6.03;1.42;;;21.70;1.00;;;;;;4843362;29;20505;-63
2023/07/22 08:26:05;;;;;;;5.55;1.42;;;21.70;1.00;;;;;;4843473;29;20132;-63
2023/07/22 08:28:33;;;;;;;2.83;1.10;;;21.70;1.00;;;;;;4836055;29;20059;-63
2023/07/22 08:31:00;;;;;;;3.80;1.58;;;21.70;1.00;;;;;;4836197;29;20102;-62
2023/07/22 08:33:28;;;;;;;3.10;1.83;;;21.70;1.00;;;;;;4838240;29;20046;-62
2023/07/22 08:36:07;;;;;;;5.57;1.20;;;21.70;1.00;;;;;;4845780;29;20436;-63
2023/07/22 08:38:34;;;;;;;3.88;1.50;;;21.70;1.00;;;;;;4851596;29;20450;-63
2023/07/22 08:41:01;;;;;;;4.40;1.58;;;21.70;1.00;;;;;;4836736;29;20037;-62
2023/07/22 08:43:29;;;;;;;3.40;1.55;;;21.70;1.00;;;;;;4839057;29;20058;-62
2023/07/22 08:46:00;;;;;;;4.13;1.95;;;21.70;1.00;;;;;;4845637;29;20196;-63
2023/07/22 08:48:32;;;;;;;5.07;1.65;;;21.70;1.00;;;;;;4838009;29;20042;-63
2023/07/22 08:51:06;;;;;;;1.90;1.15;;;21.70;1.00;;;;;;4848286;29;20466;-63
2023/07/22 08:53:34;;;;;;;3.85;1.77;;;21.70;1.00;;;;;;4847818;29;20046;-62
2023/07/22 08:56:01;;;;;;;4.60;1.73;;;21.60;1.00;;;;;;4850931;29;20072;-63
2023/07/22 08:58:30;;;;;;;4.50;1.42;;;21.70;1.00;;;;;;4844736;29;20475;-63
2023/07/22 09:00:58;;;;;;;3.88;1.75;;;21.70;1.00;;;;;;4849185;29;20046;-62
2023/07/22 09:03:25;;;;;;;4.15;1.33;;;21.70;1.00;;;;;;4842705;29;20048;-62
2023/07/22 09:05:53;;;;;;;5.13;1.88;;;21.70;1.00;;;;;;4859154;29;20102;-63
2023/07/22 09:08:20;;;;;;;7.07;2.22;;;21.70;1.00;;;;;;4847302;29;20048;-63
2023/07/22 09:10:48;;;;;;;5.00;1.52;;;21.70;1.00;;;;;;4850952;29;20463;-62
2023/07/22 09:13:15;;;;;;;2.72;1.10;;;21.60;1.00;;;;;;4853785;29;20069;-63
2023/07/22 09:15:42;;;;;;;4.80;1.92;;;21.60;1.00;;;;;;4840769;29;20523;-62
2023/07/22 09:18:09;;;;;;;2.72;1.38;;;21.70;1.00;;;;;;4842650;29;20072;-62
2023/07/22 09:20:36;;;;;;;2.75;1.50;;;21.70;1.00;;;;;;4846475;29;20038;-62
2023/07/22 09:23:05;;;;;;;4.28;1.45;;;21.60;1.00;;;;;;4845598;29;20124;-62
2023/07/22 09:25:42;;;;;;;5.57;1.73;;;21.70;1.00;;;;;;4857494;29;20060;-61
2023/07/22 09:28:09;;;;;;;4.93;1.80;;;21.60;1.00;;;;;;4844146;29;20079;-63
2023/07/22 09:30:38;;;;;;;4.97;1.48;;;21.60;1.00;;;;;;4840294;29;20045;-63
2023/07/22 09:33:19;;;;;;;8.38;2.28;;;21.60;1.00;;;;;;4834604;29;20060;-62
2023/07/22 09:35:48;;;;;;;6.10;1.75;;;21.60;1.00;;;;;;4842128;29;20426;-63
2023/07/22 09:38:21;;;;;;;9.75;1.80;;;21.60;1.00;;;;;;4844560;29;20064;-62
2023/07/22 09:40:48;;;;;;;3.38;1.88;;;21.60;1.00;;;;;;4838389;29;20065;-71
2023/07/22 09:43:16;;;;;;;4.93;1.42;;;21.60;1.00;;;;;;4850536;29;20065;-62
2023/07/22 09:45:47;;;;;;;5.63;2.15;;;21.60;1.00;;;;;;4848994;29;20049;-63
2023/07/22 09:48:15;;;;;;;8.98;1.95;;;21.60;1.00;;;;;;4855579;29;20113;-63
2023/07/22 09:50:42;;;;;;;7.97;1.30;;;21.60;1.00;;;;;;4861914;29;20401;-63
2023/07/22 09:53:14;;;;;;;11.32;1.40;;;21.60;1.00;;;;;;4770645;29;20081;-49
2023/07/22 09:55:41;;;;;;;3.92;1.80;;;21.60;1.00;;;;;;4212851;29;20038;-50
2023/07/22 09:58:09;;;;;;;2.70;1.55;;;21.60;1.00;;;;;;4071288;29;21877;-51
2023/07/22 10:00:37;;;;;;;5.50;1.95;;;21.60;1.00;;;;;;3781796;29;20463;-53
2023/07/22 10:03:10;;;;;;;6.63;1.38;;;21.60;1.00;;;;;;4099912;29;302448;-49
2023/07/22 10:05:41;;;;;;;5.43;1.83;;;21.70;1.00;;;;;;3930063;29;20503;-51
2023/07/22 10:08:10;;;;;;;3.70;1.58;;;21.60;1.00;;;;;;4100136;29;20088;-49
2023/07/22 10:10:38;;;;;;;7.72;1.77;;;21.60;1.00;;;;;;4138823;29;20510;-48
2023/07/22 10:13:05;;;;;;;9.50;1.67;;;21.70;1.00;;;;;;3809799;29;31826;-62
2023/07/22 10:15:34;;;;;;;4.47;1.55;;;21.60;1.00;;;;;;4069274;29;20049;-50
2023/07/22 10:18:02;;;;;;;5.95;1.63;;;21.60;1.00;;;;;;4696188;29;20048;-50
2023/07/22 10:20:30;;;;;;;7.45;1.52;;;21.60;1.00;;;;;;4561596;29;21669;-49
2023/07/22 10:22:58;;;;;;;4.38;1.88;;;21.70;1.00;;;;;;4524172;29;20037;-49
2023/07/22 10:25:25;;;;;;;14.90;2.05;;;21.60;1.00;;;;;;4560990;29;20554;-49
2023/07/22 10:27:53;;;;;;;4.78;1.65;;;21.70;1.00;;;;;;4690177;29;20054;-49
2023/07/22 10:30:20;;;;;;;4.63;1.63;;;21.60;1.00;;;;;;4598466;29;20130;-50
2023/07/22 10:32:50;;;;;;;3.38;1.00;;;21.70;1.00;;;;;;4320972;29;20537;-48
2023/07/22 10:35:31;;;;;;;3.15;1.00;;;21.60;1.00;;;;;;4239780;29;21013;-49
2023/07/22 10:38:17;;;;;;;5.68;1.40;;;21.60;1.00;;;;;;4330967;29;20421;-54
2023/07/22 10:40:54;;;;;;;3.30;1.02;;;21.60;1.00;;;;;;4513551;29;20522;-53
2023/07/22 10:43:33;;;;;;;4.32;1.55;;;21.70;1.00;;;;;;4521006;29;20042;-49
2023/07/22 10:46:09;;;;;;;3.13;1.52;;;21.60;1.00;;;;;;4389992;29;20072;-59
2023/07/22 10:48:39;;;;;;;3.88;1.40;;;21.60;1.00;;;;;;4466807;29;20042;-53
2023/07/22 10:51:14;;;;;;;4.65;1.05;;;21.70;1.00;;;;;;4357024;29;20059;-50
2023/07/22 10:53:44;;;;;;;2.38;1.33;;;21.60;1.00;;;;;;4519585;29;20674;-49
2023/07/22 10:56:19;;;;;;;2.45;1.27;;;21.60;1.00;;;;;;4359707;29;20046;-54
2023/07/22 10:58:46;;;;;;;3.75;1.38;;;21.60;1.00;;;;;;4546985;29;20124;-54
2023/07/22 11:01:28;;;;;;;5.28;1.10;;;21.70;1.00;;;;;;4507198;29;20045;-53
2023/07/22 11:04:18;;;;;;;2.58;1.00;;;21.60;1.00;;;;;;4364769;29;20729;-49
2023/07/22 11:06:48;;;;;;;2.53;1.08;;;21.70;1.00;;;;;;4345774;29;20557;-48
2023/07/22 11:09:27;;;;;;;6.47;1.50;;;21.60;1.00;;;;;;4518654;29;20058;-50
2023/07/22 11:11:59;;;;;;;5.70;0.85;;;21.70;1.00;;;;;;4434909;29;20053;-54
2023/07/22 11:14:28;;;;;;;4.20;1.05;;;21.70;1.00;;;;;;4354796;29;20508;-53
2023/07/22 11:17:08;;;;;;;5.03;1.77;;;21.70;1.00;;;;;;4100587;29;20074;-54
2023/07/22 11:19:35;;;;;;;2.10;0.82;;;21.70;1.00;;;;;;4491478;29;20061;-48
2023/07/22 11:22:02;;;;;;;4.82;1.88;;;21.70;1.00;;;;;;4562539;29;20038;-48
2023/07/22 11:24:31;;;;;;;1.88;1.10;;;21.70;1.00;;;;;;4677182;29;20106;-50
2023/07/22 11:27:02;;;;;;;2.83;1.33;;;21.70;1.00;;;;;;4421757;29;20053;-49
2023/07/22 11:29:29;;;;;;;2.47;1.15;;;21.70;1.00;;;;;;4378252;29;20522;-49
2023/07/22 11:31:56;;;;;;;1.15;0.70;;;21.70;1.00;;;;;;4507026;29;20041;-53
2023/07/22 11:34:24;;;;;;;1.27;0.90;;;21.70;1.00;;;;;;4434281;29;20046;-54
2023/07/22 11:36:53;;;;;;;3.63;1.70;;;21.70;1.00;;;;;;4579130;29;20120;-53
2023/07/22 11:39:21;;;;;;;3.55;1.00;;;21.70;1.00;;;;;;4514626;29;20042;-51
2023/07/22 11:41:49;;;;;;;3.42;1.17;;;21.70;1.00;;;;;;4384951;29;20435;-54
2023/07/22 11:44:19;;;;;;;3.28;0.93;;;21.70;1.00;;;;;;4484789;29;20046;-54
2023/07/22 11:47:01;;;;;;;3.90;0.75;;;21.70;1.00;;;;;;4388418;29;20491;-54
2023/07/22 11:49:33;;;;;;;3.80;0.80;;;21.70;1.00;;;;;;4304179;29;211385;-54
2023/07/22 11:52:02;;;;;;;2.45;0.70;;;21.70;1.00;;;;;;4404303;29;20460;-54
2023/07/22 11:54:30;;;;;;;5.35;1.13;;;21.70;1.00;;;;;;4259273;29;20137;-47
2023/07/22 12:14:44;;;;;;;4.18;2.60;;;21.70;1.00;;;;;;3988319;29;127520;-58
2023/07/22 12:17:11;;;;;;;10.07;2.50;;;21.70;1.00;;;;;;4268504;29;20120;-55
2023/07/22 12:19:38;;;;;;;5.80;3.20;;;21.60;1.00;;;;;;4630453;29;20056;-60
2023/07/22 12:22:05;;;;;;;10.43;3.67;;;21.70;1.00;;;;;;4447673;29;20466;-59
2023/07/22 12:24:32;;;;;;;14.65;2.78;;;21.70;1.00;;;;;;4416979;29;20050;-57
2023/07/22 12:26:59;;;;;;;13.15;3.53;;;21.60;1.00;;;;;;4341877;29;20676;-56
2023/07/22 12:29:26;;;;;;;8.57;2.70;;;21.70;1.00;;;;;;4280917;29;20546;-57
2023/07/22 12:31:53;;;;;;;7.72;2.65;;;21.70;1.00;;;;;;4221157;29;198102;-54
2023/07/22 12:34:20;;;;;;;5.93;2.53;;;21.60;1.00;;;;;;4285815;29;20110;-56
2023/07/22 12:36:47;;;;;;;10.77;3.28;;;21.70;1.00;;;;;;4172081;29;20124;-55
2023/07/22 12:39:14;;;;;;;6.60;2.40;;;21.60;1.00;;;;;;4253762;29;20547;-57
2023/07/22 12:41:41;;;;;;;4.90;2.08;;;21.60;1.00;;;;;;4546022;29;20102;-56
2023/07/22 12:44:08;;;;;;;8.70;2.85;;;21.60;1.00;;;;;;4118322;29;21077;-56
2023/07/22 12:46:34;;;;;;;8.43;2.08;;;21.60;1.00;;;;;;4284335;29;20132;-56
2023/07/22 12:49:02;;;;;;;3.63;1.95;;;21.60;1.00;;;;;;4550628;29;20045;-57
2023/07/22 12:51:33;;;;;;;8.25;2.90;;;21.70;1.00;;;;;;4599188;29;20598;-58
2023/07/22 12:54:01;;;;;;;3.30;2.35;;;21.70;1.00;;;;;;4473597;29;20056;-61
2023/07/22 12:56:29;;;;;;;6.15;2.50;;;21.70;1.00;;;;;;3909479;29;20140;-62
2023/07/22 13:07:44;;;;;;;10.07;2.60;;;21.70;1.00;;;;;;1189209;27;20054;-63
2023/07/22 13:10:14;;;;;;;7.43;2.38;;;21.70;1.00;;;;;;4370300;29;20469;-62
2023/07/22 13:12:41;;;;;;;7.57;1.60;;;21.70;1.00;;;;;;4122276;29;20343;-64
2023/07/22 13:15:10;;;;;;;5.53;2.65;;;21.70;1.00;;;;;;3933376;29;20882;-63
2023/07/22 13:17:39;;;;;;;4.93;2.30;;;21.70;1.00;;;;;;3956845;29;22291;-63
2023/07/22 13:20:12;;;;;;;6.00;1.75;;;21.70;1.00;;;;;;3970557;29;20179;-63
2023/07/22 13:22:45;;;;;;;3.85;1.75;;;21.70;1.00;;;;;;4083622;29;20794;-63
2023/07/22 13:25:17;;;;;;;5.53;2.03;;;21.70;1.00;;;;;;3949937;29;20602;-63
2023/07/22 13:27:47;;;;;;;8.93;2.10;;;21.80;1.00;;;;;;4022390;29;20701;-64
2023/07/22 13:30:14;;;;;;;13.13;3.38;;;21.80;1.00;;;;;;4062039;29;94558;-64